Time;durP1;ratioP1;P1;durP2;ratioP2;P2;SDS_P1;SDS_P2;PMS_P1;PMS_P2;Temp;Humidity;BMP_temperature;BMP_pressure;BME280_temperature;BME280_humidity;BME280_pressure;Samples;Min_cycle;Max_cycle;Signal;HPM_P1;HPM_P2
2021/11/04 00:01:49;;;;;;;218.47;45.73;;;;;;;;;;5014510;28;20190;-72
2021/11/04 00:04:14;;;;;;;288.57;49.83;;;;;;;;;;5022826;28;20181;-71
2021/11/04 00:06:39;;;;;;;295.77;52.63;;;;;;;;;;5011017;28;20193;-71
2021/11/04 00:09:05;;;;;;;223.63;48.37;;;;;;;;;;5016427;28;20190;-71
2021/11/04 00:11:30;;;;;;;298.10;48.97;;;;;;;;;;5007986;28;20239;-71
2021/11/04 00:13:56;;;;;;;338.77;53.00;;;;;;;;;;5019538;28;20279;-71
2021/11/04 00:16:21;;;;;;;261.33;47.93;;;;;;;;;;5008172;28;20212;-71
2021/11/04 00:18:47;;;;;;;214.80;45.93;;;;;;;;;;5015843;28;20220;-71
2021/11/04 00:21:12;;;;;;;176.00;45.20;;;;;;;;;;5015968;28;20260;-71
2021/11/04 00:23:37;;;;;;;161.23;41.30;;;;;;;;;;5003977;28;20216;-71
2021/11/04 00:26:03;;;;;;;166.37;42.27;;;;;;;;;;5017916;28;20201;-72
2021/11/04 00:28:28;;;;;;;201.27;43.93;;;;;;;;;;5009211;28;20178;-71
2021/11/04 00:30:54;;;;;;;427.67;53.97;;;;;;;;;;5017570;28;20182;-71
2021/11/04 00:33:19;;;;;;;410.03;52.27;;;;;;;;;;5009918;28;20206;-71
2021/11/04 00:35:45;;;;;;;241.80;44.17;;;;;;;;;;5016338;28;20193;-73
2021/11/04 00:38:10;;;;;;;279.00;48.13;;;;;;;;;;5008506;28;20193;-72
2021/11/04 00:40:35;;;;;;;242.97;48.07;;;;;;;;;;5017716;28;20249;-71
2021/11/04 00:43:01;;;;;;;264.97;48.80;;;;;;;;;;5008898;28;20178;-71
2021/11/04 00:45:27;;;;;;;320.20;49.40;;;;;;;;;;5014621;28;20763;-71
2021/11/04 00:47:53;;;;;;;255.13;47.20;;;;;;;;;;5017194;28;20273;-72
2021/11/04 00:50:20;;;;;;;294.67;47.57;;;;;;;;;;5016517;28;20182;-71
2021/11/04 00:52:46;;;;;;;347.33;51.97;;;;;;;;;;5019467;28;20206;-71
2021/11/04 00:55:11;;;;;;;497.20;55.70;;;;;;;;;;5011139;28;20182;-71
2021/11/04 00:57:37;;;;;;;202.37;47.30;;;;;;;;;;5017983;28;20912;-71
2021/11/04 01:00:06;;;;;;;273.23;51.03;;;;;;;;;;5012052;28;20218;-71
2021/11/04 01:02:31;;;;;;;221.60;45.93;;;;;;;;;;5018131;28;20193;-71
2021/11/04 01:04:57;;;;;;;225.13;46.43;;;;;;;;;;5010586;28;20557;-71
2021/11/04 01:07:22;;;;;;;247.37;45.90;;;;;;;;;;5017150;28;20224;-71
2021/11/04 01:09:48;;;;;;;239.23;48.60;;;;;;;;;;5010658;28;20190;-71
2021/11/04 01:12:14;;;;;;;226.43;45.30;;;;;;;;;;5017001;28;20528;-71
2021/11/04 01:14:41;;;;;;;220.70;45.90;;;;;;;;;;5009078;28;20221;-71
2021/11/04 01:17:06;;;;;;;250.43;47.80;;;;;;;;;;5017285;28;20324;-71
2021/11/04 01:19:32;;;;;;;254.50;44.60;;;;;;;;;;5012438;28;20296;-71
2021/11/04 01:21:57;;;;;;;162.43;39.80;;;;;;;;;;5017058;28;20206;-70
2021/11/04 01:24:23;;;;;;;140.53;39.07;;;;;;;;;;5016674;28;20190;-71
2021/11/04 01:26:48;;;;;;;305.00;41.30;;;;;;;;;;5010464;28;20182;-70
2021/11/04 01:29:14;;;;;;;212.33;39.50;;;;;;;;;;5020524;28;20204;-71
2021/11/04 01:31:39;;;;;;;172.93;39.90;;;;;;;;;;5009840;28;20190;-71
2021/11/04 01:34:06;;;;;;;421.93;48.57;;;;;;;;;;5018541;28;20552;-70
2021/11/04 01:36:31;;;;;;;215.50;41.17;;;;;;;;;;5008774;28;20186;-70
2021/11/04 01:38:56;;;;;;;260.87;44.03;;;;;;;;;;5018848;28;20347;-72
2021/11/04 01:41:22;;;;;;;273.67;41.13;;;;;;;;;;5010069;28;20643;-70
2021/11/04 01:43:47;;;;;;;258.20;43.07;;;;;;;;;;5017021;28;20270;-71
2021/11/04 01:46:12;;;;;;;237.27;42.97;;;;;;;;;;5007790;28;20194;-71
2021/11/04 01:48:41;;;;;;;214.50;43.23;;;;;;;;;;5019327;28;20191;-71
2021/11/04 01:51:07;;;;;;;418.57;50.97;;;;;;;;;;5016658;28;20531;-71
2021/11/04 01:53:32;;;;;;;264.50;42.83;;;;;;;;;;5009614;28;20205;-71
2021/11/04 01:55:57;;;;;;;286.20;46.83;;;;;;;;;;5021209;28;20209;-72
2021/11/04 01:58:23;;;;;;;328.57;50.27;;;;;;;;;;5013055;28;20235;-71
2021/11/04 02:00:48;;;;;;;363.67;49.13;;;;;;;;;;5023948;28;20584;-71
2021/11/04 02:03:30;;;;;;;275.20;44.77;;;;;;;;;;5013754;28;20194;-71
2021/11/04 02:06:17;;;;;;;274.77;46.00;;;;;;;;;;5021570;28;20186;-71
2021/11/04 02:09:01;;;;;;;550.17;54.50;;;;;;;;;;5009309;28;20208;-71
2021/11/04 02:11:34;;;;;;;379.17;46.30;;;;;;;;;;5015784;28;20333;-71
2021/11/04 02:14:04;;;;;;;383.97;47.60;;;;;;;;;;5011747;28;20604;-71
2021/11/04 02:16:30;;;;;;;421.63;48.97;;;;;;;;;;5021586;28;20587;-71
2021/11/04 02:19:03;;;;;;;488.73;52.50;;;;;;;;;;5009174;28;20190;-71
2021/11/04 02:21:39;;;;;;;376.17;44.87;;;;;;;;;;5022088;28;20661;-71
2021/11/04 02:24:19;;;;;;;645.07;57.93;;;;;;;;;;5013078;28;20721;-71
2021/11/04 02:26:45;;;;;;;249.80;40.47;;;;;;;;;;5021676;28;20681;-71
2021/11/04 02:29:12;;;;;;;268.43;43.37;;;;;;;;;;5014153;28;20277;-71
2021/11/04 02:31:37;;;;;;;305.50;42.40;;;;;;;;;;5014545;28;20620;-71
2021/11/04 02:34:03;;;;;;;548.07;51.70;;;;;;;;;;5013432;28;20222;-71
2021/11/04 02:36:29;;;;;;;504.50;50.17;;;;;;;;;;5020943;28;20524;-71
2021/11/04 02:38:55;;;;;;;319.57;42.50;;;;;;;;;;5012734;28;20190;-71
2021/11/04 02:41:22;;;;;;;318.77;42.90;;;;;;;;;;5020732;28;20614;-71
2021/11/04 02:43:49;;;;;;;490.03;51.83;;;;;;;;;;5022696;28;20255;-71
2021/11/04 02:46:15;;;;;;;392.03;48.13;;;;;;;;;;5013258;28;20665;-71
2021/11/04 02:48:41;;;;;;;166.73;36.70;;;;;;;;;;5020523;28;20205;-71
2021/11/04 02:51:07;;;;;;;231.30;40.07;;;;;;;;;;5013538;28;20296;-71
2021/11/04 02:53:32;;;;;;;224.67;40.23;;;;;;;;;;5020687;28;20288;-71
2021/11/04 02:55:58;;;;;;;203.60;38.23;;;;;;;;;;5012846;28;20210;-71
2021/11/04 02:58:25;;;;;;;232.43;39.13;;;;;;;;;;5022511;28;20190;-71
2021/11/04 03:00:54;;;;;;;165.47;36.70;;;;;;;;;;5013196;28;20194;-71
2021/11/04 03:03:19;;;;;;;190.97;39.03;;;;;;;;;;5021012;28;20220;-71
2021/11/04 03:05:45;;;;;;;197.73;38.40;;;;;;;;;;5010641;28;20535;-71
2021/11/04 03:08:11;;;;;;;161.67;39.77;;;;;;;;;;5019350;28;20547;-71
2021/11/04 03:10:36;;;;;;;194.80;39.93;;;;;;;;;;5011440;28;20419;-71
2021/11/04 03:13:03;;;;;;;128.60;36.87;;;;;;;;;;5018449;28;20194;-71
2021/11/04 03:15:31;;;;;;;111.27;36.53;;;;;;;;;;5019210;28;20644;-71
2021/11/04 03:17:56;;;;;;;121.67;35.87;;;;;;;;;;5012722;28;20864;-71
2021/11/04 03:20:22;;;;;;;225.47;39.80;;;;;;;;;;5018876;28;20269;-72
2021/11/04 03:22:48;;;;;;;165.70;38.23;;;;;;;;;;5011231;28;20190;-71
2021/11/04 03:25:17;;;;;;;158.77;35.60;;;;;;;;;;5019757;28;20197;-71
2021/11/04 03:27:45;;;;;;;148.50;36.53;;;;;;;;;;5006915;28;20293;-71
2021/11/04 03:30:13;;;;;;;152.33;36.70;;;;;;;;;;5017104;28;20170;-71
2021/11/04 03:32:39;;;;;;;115.13;33.20;;;;;;;;;;5011720;28;20688;-71
2021/11/04 03:35:06;;;;;;;129.00;34.30;;;;;;;;;;5022083;28;20190;-71
2021/11/04 03:37:33;;;;;;;157.93;34.57;;;;;;;;;;5010009;28;20198;-71
2021/11/04 03:39:58;;;;;;;273.93;38.80;;;;;;;;;;5020477;28;20189;-71
2021/11/04 03:42:25;;;;;;;173.83;36.60;;;;;;;;;;5012439;28;20216;-71
2021/11/04 03:44:51;;;;;;;226.00;36.13;;;;;;;;;;5021814;28;20190;-71
2021/11/04 03:47:17;;;;;;;436.07;46.50;;;;;;;;;;5011308;28;20197;-71
2021/11/04 03:49:46;;;;;;;375.27;43.23;;;;;;;;;;5020460;28;20190;-71
2021/11/04 03:52:12;;;;;;;133.97;34.23;;;;;;;;;;5017996;28;20272;-71
2021/11/04 03:54:38;;;;;;;262.90;38.27;;;;;;;;;;5011893;28;20293;-71
2021/11/04 03:57:03;;;;;;;203.90;37.60;;;;;;;;;;5018916;28;20209;-71
2021/11/04 03:59:30;;;;;;;166.40;36.00;;;;;;;;;;5012877;28;20204;-71
2021/11/04 04:01:56;;;;;;;247.73;38.03;;;;;;;;;;5018299;28;20244;-71
2021/11/04 04:04:21;;;;;;;168.97;34.93;;;;;;;;;;5008573;28;20213;-71
2021/11/04 04:06:52;;;;;;;153.53;32.00;;;;;;;;;;5021622;28;20616;-71
2021/11/04 04:09:19;;;;;;;146.63;32.50;;;;;;;;;;5011278;28;20596;-71
2021/11/04 04:11:44;;;;;;;96.67;29.67;;;;;;;;;;5018900;28;20298;-71
2021/11/04 04:14:10;;;;;;;71.17;28.67;;;;;;;;;;5008885;28;20247;-71
2021/11/04 04:16:35;;;;;;;108.97;29.83;;;;;;;;;;5019361;28;20668;-71
2021/11/04 04:19:00;;;;;;;68.63;27.13;;;;;;;;;;5011331;28;20196;-71
2021/11/04 04:21:26;;;;;;;58.57;26.90;;;;;;;;;;5019924;28;20200;-71
2021/11/04 04:23:51;;;;;;;90.73;29.13;;;;;;;;;;5018842;28;20278;-71
2021/11/04 04:26:17;;;;;;;83.70;28.90;;;;;;;;;;5012695;28;20279;-71
2021/11/04 04:28:42;;;;;;;99.30;28.83;;;;;;;;;;5020286;28;20668;-71
2021/11/04 04:31:08;;;;;;;104.07;30.40;;;;;;;;;;5011372;28;21229;-71
2021/11/04 04:33:33;;;;;;;89.37;28.57;;;;;;;;;;5018107;28;20371;-71
2021/11/04 04:35:58;;;;;;;139.53;30.37;;;;;;;;;;5009448;28;20200;-71
2021/11/04 04:38:24;;;;;;;151.90;31.70;;;;;;;;;;5020127;28;20190;-71
2021/11/04 04:40:49;;;;;;;115.10;29.70;;;;;;;;;;5010831;28;20217;-71
2021/11/04 04:43:15;;;;;;;147.23;31.03;;;;;;;;;;5016397;28;20185;-71
2021/11/04 04:45:40;;;;;;;109.57;29.00;;;;;;;;;;5009797;28;20209;-71
2021/11/04 04:48:06;;;;;;;96.60;27.77;;;;;;;;;;5018902;28;20206;-71
2021/11/04 04:50:32;;;;;;;98.07;27.53;;;;;;;;;;5016359;28;20213;-71
2021/11/04 04:52:57;;;;;;;81.80;26.87;;;;;;;;;;5021492;28;20213;-71
2021/11/04 04:55:22;;;;;;;58.97;26.73;;;;;;;;;;5019289;28;20198;-71
2021/11/04 04:57:48;;;;;;;67.00;27.90;;;;;;;;;;5012550;28;20244;-71
2021/11/04 05:00:14;;;;;;;67.50;27.43;;;;;;;;;;5017655;28;20200;-71
2021/11/04 05:02:42;;;;;;;65.23;28.00;;;;;;;;;;5009775;28;20240;-71
2021/11/04 05:05:12;;;;;;;97.50;29.47;;;;;;;;;;5018550;28;20182;-72
2021/11/04 05:07:38;;;;;;;83.13;28.60;;;;;;;;;;5008667;28;20284;-72
2021/11/04 05:10:05;;;;;;;123.57;25.88;;;;;;;;;;4324989;28;10021624;-72
2021/11/04 05:12:30;;;;;;;79.50;28.67;;;;;;;;;;5006000;28;20192;-71
2021/11/04 05:14:56;;;;;;;76.00;26.97;;;;;;;;;;5015613;28;20185;-72
2021/11/04 05:17:22;;;;;;;100.87;30.40;;;;;;;;;;5006578;28;20561;-71
2021/11/04 05:19:47;;;;;;;153.33;32.43;;;;;;;;;;5016964;28;20194;-72
2021/11/04 05:22:12;;;;;;;153.57;31.33;;;;;;;;;;5016226;28;20204;-72
2021/11/04 05:24:38;;;;;;;87.67;30.03;;;;;;;;;;5007162;28;20186;-71
2021/11/04 05:27:04;;;;;;;95.90;30.10;;;;;;;;;;5013246;28;20186;-71
2021/11/04 05:29:31;;;;;;;138.77;32.33;;;;;;;;;;5007199;28;20194;-72
2021/11/04 05:32:01;;;;;;;110.43;30.50;;;;;;;;;;5018218;28;20209;-71
2021/11/04 05:34:27;;;;;;;87.00;30.70;;;;;;;;;;5010671;28;20237;-72
2021/11/04 05:36:53;;;;;;;99.73;31.23;;;;;;;;;;5017554;28;20513;-72
2021/11/04 05:39:18;;;;;;;90.17;29.70;;;;;;;;;;5017019;28;20288;-72
2021/11/04 05:41:44;;;;;;;85.47;30.43;;;;;;;;;;5020592;28;20202;-71
2021/11/04 05:44:09;;;;;;;71.57;29.93;;;;;;;;;;5010783;28;20567;-72
2021/11/04 05:46:35;;;;;;;58.67;27.23;;;;;;;;;;5017698;28;20226;-72
2021/11/04 05:49:00;;;;;;;57.67;27.07;;;;;;;;;;5009503;28;20193;-71
2021/11/04 05:51:26;;;;;;;52.87;25.80;;;;;;;;;;5017844;28;20194;-72
2021/11/04 05:53:51;;;;;;;51.50;26.13;;;;;;;;;;5015745;28;20206;-72
2021/11/04 05:56:16;;;;;;;51.10;24.90;;;;;;;;;;5011680;28;20334;-72
2021/11/04 05:58:42;;;;;;;60.00;25.97;;;;;;;;;;5017792;28;20264;-72
2021/11/04 06:01:07;;;;;;;57.80;26.70;;;;;;;;;;5009048;28;20260;-72
2021/11/04 06:03:32;;;;;;;49.27;25.10;;;;;;;;;;5017747;28;20186;-72
2021/11/04 06:05:58;;;;;;;45.77;24.93;;;;;;;;;;5009727;28;20225;-71
2021/11/04 06:08:23;;;;;;;51.40;25.23;;;;;;;;;;5017938;28;20214;-72
2021/11/04 06:10:48;;;;;;;49.43;26.27;;;;;;;;;;5009707;28;20226;-71
2021/11/04 06:13:14;;;;;;;50.90;26.03;;;;;;;;;;5014502;28;20225;-72
2021/11/04 06:15:39;;;;;;;49.87;25.77;;;;;;;;;;5009785;28;20198;-72
2021/11/04 06:18:04;;;;;;;50.97;25.20;;;;;;;;;;5017017;28;20244;-72
2021/11/04 06:20:30;;;;;;;51.20;26.10;;;;;;;;;;5010691;28;20178;-70
2021/11/04 06:22:56;;;;;;;52.87;26.23;;;;;;;;;;5017721;28;20205;-71
2021/11/04 06:25:22;;;;;;;49.63;25.60;;;;;;;;;;5019533;28;20194;-71
2021/11/04 06:27:47;;;;;;;51.97;25.83;;;;;;;;;;5012970;28;20767;-71
2021/11/04 06:30:14;;;;;;;51.60;26.60;;;;;;;;;;5022433;28;20826;-72
2021/11/04 06:32:40;;;;;;;50.60;25.37;;;;;;;;;;5011523;28;20198;-72
2021/11/04 06:35:08;;;;;;;50.23;26.70;;;;;;;;;;5021997;28;20182;-72
2021/11/04 06:37:34;;;;;;;53.97;25.37;;;;;;;;;;5012403;28;20205;-71
2021/11/04 06:39:59;;;;;;;50.73;24.70;;;;;;;;;;5020254;28;20194;-71
2021/11/04 06:42:25;;;;;;;54.60;25.33;;;;;;;;;;5009415;28;20201;-72
2021/11/04 06:44:50;;;;;;;51.67;25.97;;;;;;;;;;5022067;28;20174;-72
2021/11/04 06:47:30;;;;;;;51.77;26.30;;;;;;;;;;5011138;28;20204;-71
2021/11/04 06:50:00;;;;;;;53.13;25.47;;;;;;;;;;5021334;28;20296;-71
2021/11/04 06:52:33;;;;;;;51.73;26.57;;;;;;;;;;5006069;28;20212;-71
2021/11/04 06:55:00;;;;;;;54.20;25.93;;;;;;;;;;5020483;28;20280;-71
2021/11/04 06:57:27;;;;;;;57.03;28.10;;;;;;;;;;5010932;28;21354;-72
2021/11/04 06:59:56;;;;;;;58.67;27.30;;;;;;;;;;5019580;28;20194;-72
2021/11/04 07:02:35;;;;;;;59.47;28.77;;;;;;;;;;5018164;28;20228;-72
2021/11/04 07:05:01;;;;;;;64.63;29.53;;;;;;;;;;5013530;28;20193;-72
2021/11/04 07:07:27;;;;;;;60.00;28.63;;;;;;;;;;5010068;28;20557;-72
2021/11/04 07:09:53;;;;;;;63.57;28.40;;;;;;;;;;5011124;28;20291;-71
2021/11/04 07:12:18;;;;;;;69.43;28.57;;;;;;;;;;5016611;28;20190;-71
2021/11/04 07:14:44;;;;;;;73.07;29.00;;;;;;;;;;5006647;28;20569;-71
2021/11/04 07:17:11;;;;;;;138.30;30.23;;;;;;;;;;5014304;28;20191;-71
2021/11/04 07:19:37;;;;;;;57.93;26.10;;;;;;;;;;5008838;28;20502;-71
2021/11/04 07:22:36;;;;;;;84.67;24.77;;;;;;;;;;5016570;28;20198;-71
2021/11/04 07:25:07;;;;;;;83.20;25.50;;;;;;;;;;5006970;28;20190;-70
2021/11/04 07:27:44;;;;;;;121.57;25.10;;;;;;;;;;5019018;28;20585;-71
2021/11/04 07:30:14;;;;;;;64.77;26.57;;;;;;;;;;5010805;28;20189;-70
2021/11/04 07:32:46;;;;;;;154.80;28.70;;;;;;;;;;5020266;28;20198;-71
2021/11/04 07:35:15;;;;;;;55.17;26.43;;;;;;;;;;5012448;28;20560;-71
2021/11/04 07:37:43;;;;;;;61.57;26.50;;;;;;;;;;5020266;28;20605;-71
2021/11/04 07:40:08;;;;;;;68.37;26.63;;;;;;;;;;5012943;28;20582;-70
2021/11/04 07:42:38;;;;;;;54.33;27.40;;;;;;;;;;5018911;28;20213;-70
2021/11/04 07:45:04;;;;;;;51.37;26.30;;;;;;;;;;5009060;28;20212;-71
2021/11/04 07:47:30;;;;;;;58.87;25.23;;;;;;;;;;5019300;28;20201;-70
2021/11/04 07:49:55;;;;;;;54.90;27.00;;;;;;;;;;5019792;28;20190;-70
2021/11/04 07:52:21;;;;;;;56.70;26.97;;;;;;;;;;5011752;28;20182;-71
2021/11/04 07:54:46;;;;;;;57.17;24.87;;;;;;;;;;5018246;28;20650;-71
2021/11/04 07:57:12;;;;;;;48.63;23.93;;;;;;;;;;5006586;28;20233;-71
2021/11/04 07:59:37;;;;;;;44.03;23.23;;;;;;;;;;5019592;28;20186;-70
2021/11/04 08:02:03;;;;;;;42.87;23.57;;;;;;;;;;5016177;28;20181;-71
2021/11/04 08:04:30;;;;;;;47.43;22.77;;;;;;;;;;5022736;28;20269;-71
2021/11/04 08:06:56;;;;;;;43.93;22.50;;;;;;;;;;5013453;28;20209;-71
2021/11/04 08:09:21;;;;;;;47.17;22.30;;;;;;;;;;5017991;28;20190;-71
2021/11/04 08:11:47;;;;;;;40.23;22.07;;;;;;;;;;5009597;28;20226;-71
2021/11/04 08:14:12;;;;;;;45.97;22.27;;;;;;;;;;5019576;28;20594;-71
2021/11/04 08:16:38;;;;;;;40.30;21.63;;;;;;;;;;5010814;28;20194;-71
2021/11/04 08:19:03;;;;;;;28.60;18.77;;;;;;;;;;5020449;28;20190;-71
2021/11/04 08:21:28;;;;;;;35.13;20.00;;;;;;;;;;5017903;28;20190;-71
2021/11/04 08:23:54;;;;;;;35.17;18.67;;;;;;;;;;5009172;28;20186;-71
2021/11/04 08:26:19;;;;;;;28.80;18.23;;;;;;;;;;5018812;28;20190;-71
2021/11/04 08:28:45;;;;;;;28.20;17.30;;;;;;;;;;5009646;28;20202;-72
2021/11/04 08:31:11;;;;;;;27.00;16.67;;;;;;;;;;5020199;28;20527;-71
2021/11/04 08:33:36;;;;;;;28.67;16.97;;;;;;;;;;5012776;28;20222;-72
2021/11/04 08:36:02;;;;;;;31.40;17.90;;;;;;;;;;5019852;28;20650;-72
2021/11/04 08:38:27;;;;;;;33.37;18.47;;;;;;;;;;5010029;28;20197;-71
2021/11/04 08:40:53;;;;;;;29.37;18.23;;;;;;;;;;5020292;28;20197;-71
2021/11/04 08:43:18;;;;;;;28.47;18.10;;;;;;;;;;5021388;28;20185;-71
2021/11/04 08:45:43;;;;;;;30.80;19.40;;;;;;;;;;5020048;28;20224;-71
2021/11/04 08:48:10;;;;;;;28.20;18.30;;;;;;;;;;5012855;28;20186;-71
2021/11/04 08:50:35;;;;;;;25.70;16.37;;;;;;;;;;5019725;28;20286;-72
2021/11/04 08:53:00;;;;;;;26.00;16.10;;;;;;;;;;5018932;28;20217;-71
2021/11/04 08:55:26;;;;;;;28.13;15.20;;;;;;;;;;5012079;28;20201;-71
2021/11/04 08:57:52;;;;;;;26.30;15.53;;;;;;;;;;5020946;28;20201;-71
2021/11/04 09:00:19;;;;;;;27.27;16.53;;;;;;;;;;5011256;28;20201;-71
2021/11/04 09:02:44;;;;;;;25.83;17.17;;;;;;;;;;5018873;28;20252;-71
2021/11/04 09:05:10;;;;;;;27.00;17.77;;;;;;;;;;5011993;28;20193;-71
2021/11/04 09:07:42;;;;;;;29.43;17.20;;;;;;;;;;5018450;28;20205;-71
2021/11/04 09:10:09;;;;;;;25.23;16.60;;;;;;;;;;5012261;28;20221;-71
2021/11/04 09:12:36;;;;;;;25.40;16.77;;;;;;;;;;5015354;28;20190;-71
2021/11/04 09:15:04;;;;;;;27.20;17.80;;;;;;;;;;5011574;28;20206;-71
2021/11/04 09:17:29;;;;;;;28.87;17.57;;;;;;;;;;5018559;28;20208;-72
2021/11/04 09:19:54;;;;;;;25.10;16.93;;;;;;;;;;5012932;28;20265;-71
2021/11/04 09:22:20;;;;;;;29.93;16.57;;;;;;;;;;5016871;28;20855;-71
2021/11/04 09:24:46;;;;;;;27.33;16.77;;;;;;;;;;5020482;28;20201;-71
2021/11/04 09:27:11;;;;;;;25.50;16.27;;;;;;;;;;5008001;28;20691;-72
2021/11/04 09:29:38;;;;;;;49.87;30.33;;;;;;;;;;5020686;28;20171;-72
2021/11/04 09:32:06;;;;;;;27.87;18.37;;;;;;;;;;5011222;28;20178;-72
2021/11/04 09:34:32;;;;;;;25.73;15.77;;;;;;;;;;5018636;28;20770;-72
2021/11/04 09:36:57;;;;;;;22.67;15.27;;;;;;;;;;5009358;28;20190;-72
2021/11/04 09:39:22;;;;;;;25.67;15.37;;;;;;;;;;5019421;28;20305;-71
2021/11/04 09:41:50;;;;;;;25.57;16.47;;;;;;;;;;5010929;28;20183;-72
2021/11/04 09:44:18;;;;;;;26.23;16.20;;;;;;;;;;5019924;28;20196;-72
2021/11/04 09:46:43;;;;;;;24.10;16.00;;;;;;;;;;5011486;28;20701;-72
2021/11/04 09:49:09;;;;;;;23.23;14.57;;;;;;;;;;5020182;28;20280;-72
2021/11/04 09:51:34;;;;;;;22.80;14.93;;;;;;;;;;5013269;28;20197;-72
2021/11/04 09:54:00;;;;;;;23.37;15.13;;;;;;;;;;5018433;28;20221;-73
2021/11/04 09:56:25;;;;;;;23.63;14.67;;;;;;;;;;5020294;28;20562;-72
2021/11/04 09:58:51;;;;;;;23.20;14.30;;;;;;;;;;5009590;28;20186;-72
2021/11/04 10:01:25;;;;;;;26.05;14.73;;;;;;;;;;5017926;28;20186;-73
2021/11/04 10:03:57;;;;;;;19.83;13.90;;;;;;;;;;5010759;28;20617;-72
2021/11/04 10:06:28;;;;;;;25.10;15.52;;;;;;;;;;5019594;28;20188;-70
2021/11/04 10:08:57;;;;;;;20.63;14.85;;;;;;;;;;5009440;28;20705;-71
2021/11/04 10:11:28;;;;;;;21.02;15.00;;;;;;;;;;5019656;28;20226;-71
2021/11/04 10:14:06;;;;;;;19.27;13.85;;;;;;;;;;5009245;28;20224;-71
2021/11/04 10:16:33;;;;;;;19.90;13.68;;;;;;;;;;5021242;28;20182;-72
2021/11/04 10:19:04;;;;;;;20.65;12.63;;;;;;;;;;5013065;28;20190;-72
2021/11/04 10:21:31;;;;;;;16.73;12.25;;;;;;;;;;5023544;28;20721;-71
2021/11/04 10:23:57;;;;;;;22.40;14.90;;;;;;;;;;5012868;28;20182;-71
2021/11/04 10:26:29;;;;;;;19.70;12.68;;;;;;;;;;5023162;28;20701;-72
2021/11/04 10:29:06;;;;;;;18.58;13.40;;;;;;;;;;5014318;28;20208;-72
2021/11/04 10:31:41;;;;;;;19.25;13.98;;;;;;;;;;5015326;28;20542;-72
2021/11/04 10:34:24;;;;;;;18.05;13.02;;;;;;;;;;5006476;28;20218;-72
2021/11/04 10:36:50;;;;;;;20.90;13.63;;;;;;;;;;5021377;28;20276;-72
2021/11/04 10:39:15;;;;;;;21.00;13.40;;;;;;;;;;5011829;28;20229;-72
2021/11/04 10:41:43;;;;;;;19.05;13.93;;;;;;;;;;5023521;28;20218;-72
2021/11/04 10:44:15;;;;;;;19.65;13.10;;;;;;;;;;5022912;28;20174;-72
2021/11/04 10:46:46;;;;;;;20.88;12.38;;;;;;;;;;5013981;28;20246;-72
2021/11/04 10:49:13;;;;;;;17.95;13.02;;;;;;;;;;5022796;28;20613;-72
2021/11/04 10:51:38;;;;;;;19.83;12.68;;;;;;;;;;5010174;28;20194;-72
2021/11/04 10:54:11;;;;;;;22.52;14.82;;;;;;;;;;5022834;28;20260;-72
2021/11/04 10:56:39;;;;;;;20.15;13.85;;;;;;;;;;5013860;28;20249;-72
2021/11/04 10:59:12;;;;;;;19.70;12.52;;;;;;;;;;5021615;28;20198;-72
2021/11/04 11:01:43;;;;;;;19.35;12.95;;;;;;;;;;5014054;28;20194;-72
2021/11/04 11:04:13;;;;;;;19.05;13.45;;;;;;;;;;5021569;28;20554;-72
2021/11/04 11:06:53;;;;;;;18.42;12.57;;;;;;;;;;5012133;28;20263;-72
2021/11/04 11:09:23;;;;;;;19.52;13.25;;;;;;;;;;5020252;28;20193;-72
2021/11/04 11:11:51;;;;;;;17.45;11.95;;;;;;;;;;5012728;28;20276;-72
2021/11/04 11:14:18;;;;;;;17.60;12.70;;;;;;;;;;5019636;28;20214;-72
2021/11/04 11:16:51;;;;;;;18.58;12.27;;;;;;;;;;5011246;28;20197;-72
2021/11/04 11:19:19;;;;;;;17.73;12.30;;;;;;;;;;5018718;28;20198;-72
2021/11/04 11:21:50;;;;;;;20.58;12.70;;;;;;;;;;5007215;28;20279;-72
2021/11/04 11:24:16;;;;;;;17.27;12.05;;;;;;;;;;5020573;28;20247;-72
2021/11/04 11:26:44;;;;;;;17.38;12.80;;;;;;;;;;5016825;28;22878;-72
2021/11/04 11:29:10;;;;;;;15.70;12.13;;;;;;;;;;5017369;28;20198;-72
2021/11/04 11:31:46;;;;;;;16.67;11.80;;;;;;;;;;5020270;28;20266;-72
2021/11/04 11:34:16;;;;;;;16.60;11.93;;;;;;;;;;5012809;28;20212;-72
2021/11/04 11:37:15;;;;;;;17.70;12.52;;;;;;;;;;5021430;28;20259;-72
2021/11/04 11:39:43;;;;;;;16.45;12.45;;;;;;;;;;5028059;28;20186;-72
2021/11/04 11:42:10;;;;;;;16.60;11.98;;;;;;;;;;5016033;28;20198;-72
2021/11/04 11:44:40;;;;;;;16.73;12.20;;;;;;;;;;5009889;28;20525;-72
2021/11/04 11:47:10;;;;;;;15.98;11.68;;;;;;;;;;5016197;28;20543;-72
2021/11/04 11:49:40;;;;;;;17.15;11.98;;;;;;;;;;5006240;28;21047;-72
2021/11/04 11:52:07;;;;;;;18.27;12.57;;;;;;;;;;5020019;28;20646;-72
2021/11/04 11:54:57;;;;;;;18.33;12.93;;;;;;;;;;5010122;28;20212;-72
2021/11/04 11:57:23;;;;;;;17.88;13.52;;;;;;;;;;5016041;28;20209;-71
2021/11/04 11:59:56;;;;;;;19.00;13.35;;;;;;;;;;5015082;28;20200;-72
2021/11/04 12:02:42;;;;;;;24.73;14.05;;;;;;;;;;5017540;28;20251;-71
2021/11/04 12:05:28;;;;;;;22.65;13.57;;;;;;;;;;5012444;28;20190;-72
2021/11/04 12:07:54;;;;;;;19.75;13.60;;;;;;;;;;5015893;28;20287;-72
2021/11/04 12:10:31;;;;;;;19.08;12.85;;;;;;;;;;5010627;28;20772;-72
2021/11/04 12:12:58;;;;;;;23.70;13.77;;;;;;;;;;5020828;28;20235;-72
2021/11/04 12:15:25;;;;;;;17.80;12.30;;;;;;;;;;5010255;28;20201;-73
2021/11/04 12:18:10;;;;;;;19.65;14.18;;;;;;;;;;5017201;28;20190;-72
2021/11/04 12:20:37;;;;;;;18.80;13.05;;;;;;;;;;5006048;28;20190;-72
2021/11/04 12:23:02;;;;;;;19.75;13.07;;;;;;;;;;5017724;28;20190;-72
2021/11/04 12:25:29;;;;;;;17.45;13.43;;;;;;;;;;5009804;28;20215;-72
2021/11/04 12:27:58;;;;;;;20.17;12.45;;;;;;;;;;5017648;28;20197;-73
2021/11/04 12:30:27;;;;;;;21.10;13.25;;;;;;;;;;5017542;28;20194;-72
2021/11/04 12:33:00;;;;;;;21.05;14.15;;;;;;;;;;5022027;28;20213;-72
2021/11/04 12:35:44;;;;;;;24.05;15.30;;;;;;;;;;5019059;28;20642;-71
2021/11/04 12:38:10;;;;;;;22.75;14.48;;;;;;;;;;5029023;28;20692;-72
2021/11/04 12:40:35;;;;;;;21.02;14.98;;;;;;;;;;5017541;28;20186;-72
2021/11/04 12:43:09;;;;;;;23.17;15.57;;;;;;;;;;5009567;28;20244;-72
2021/11/04 12:45:35;;;;;;;20.58;14.52;;;;;;;;;;5019469;28;20209;-72
2021/11/04 12:48:02;;;;;;;20.20;14.15;;;;;;;;;;5008270;28;20228;-71
2021/11/04 12:50:29;;;;;;;18.48;13.18;;;;;;;;;;5015525;28;20228;-72
2021/11/04 12:53:10;;;;;;;19.58;12.85;;;;;;;;;;5009319;28;20273;-72
2021/11/04 12:55:36;;;;;;;18.25;12.98;;;;;;;;;;5027945;28;20287;-71
2021/11/04 12:58:05;;;;;;;20.13;13.50;;;;;;;;;;5010362;28;20703;-71
2021/11/04 13:00:30;;;;;;;20.20;14.43;;;;;;;;;;5032338;28;20200;-71
2021/11/04 13:02:56;;;;;;;21.27;12.87;;;;;;;;;;5008292;28;20190;-71
2021/11/04 13:05:22;;;;;;;20.38;13.73;;;;;;;;;;5014458;28;20182;-71
2021/11/04 13:07:54;;;;;;;17.90;13.07;;;;;;;;;;5009683;28;20190;-71
2021/11/04 13:10:24;;;;;;;19.90;14.00;;;;;;;;;;5015960;28;20298;-71
2021/11/04 13:12:59;;;;;;;21.88;14.32;;;;;;;;;;5010465;28;20563;-71
2021/11/04 13:15:25;;;;;;;20.83;13.77;;;;;;;;;;5016973;28;20189;-71
2021/11/04 13:17:55;;;;;;;21.45;14.00;;;;;;;;;;5013527;28;20199;-72
2021/11/04 13:20:25;;;;;;;18.88;13.30;;;;;;;;;;5018869;28;20213;-70
2021/11/04 13:22:58;;;;;;;18.63;13.32;;;;;;;;;;5020049;28;20244;-71
2021/11/04 13:25:26;;;;;;;19.67;12.63;;;;;;;;;;5009134;28;20649;-71
2021/11/04 13:27:57;;;;;;;19.38;13.70;;;;;;;;;;5019057;28;20472;-71
2021/11/04 13:30:48;;;;;;;23.02;13.73;;;;;;;;;;5009545;28;20716;-72
2021/11/04 13:33:19;;;;;;;20.33;11.88;;;;;;;;;;5016323;28;20210;-72
2021/11/04 13:35:46;;;;;;;18.80;11.80;;;;;;;;;;5003232;28;20197;-71
2021/11/04 13:38:21;;;;;;;20.83;12.27;;;;;;;;;;5018202;28;20221;-71
2021/11/04 13:40:53;;;;;;;18.70;11.73;;;;;;;;;;5007300;28;20736;-71
2021/11/04 13:43:40;;;;;;;20.83;11.37;;;;;;;;;;5016168;28;20606;-72
2021/11/04 13:46:07;;;;;;;15.73;10.65;;;;;;;;;;5010544;28;20288;-71
2021/11/04 13:48:34;;;;;;;17.08;10.50;;;;;;;;;;5016743;28;20189;-71
2021/11/04 13:51:00;;;;;;;15.38;9.65;;;;;;;;;;5016766;28;20231;-71
2021/11/04 13:53:26;;;;;;;16.10;10.27;;;;;;;;;;5020556;28;20216;-71
2021/11/04 13:55:56;;;;;;;14.45;9.68;;;;;;;;;;5008441;28;20214;-71
2021/11/04 13:58:42;;;;;;;16.03;9.43;;;;;;;;;;5017878;28;20556;-71
2021/11/04 14:01:09;;;;;;;15.63;10.60;;;;;;;;;;5010785;28;20595;-71
2021/11/04 14:03:35;;;;;;;14.53;9.90;;;;;;;;;;5019013;28;20774;-72
2021/11/04 14:06:01;;;;;;;20.10;9.73;;;;;;;;;;5011985;28;20185;-71
2021/11/04 14:08:48;;;;;;;20.20;10.23;;;;;;;;;;5018401;28;20186;-71
2021/11/04 14:11:19;;;;;;;16.43;10.00;;;;;;;;;;5010069;28;20650;-71
2021/11/04 14:13:55;;;;;;;16.17;10.23;;;;;;;;;;5021339;28;20312;-72
2021/11/04 14:16:23;;;;;;;15.93;9.73;;;;;;;;;;5011472;28;20212;-72
2021/11/04 14:18:48;;;;;;;14.60;9.63;;;;;;;;;;5018924;28;20533;-72